Terminal Aerodrome Forecast
Issued by NWS

Home | Current Version | Previous Version | Text Only | Print | Product List | Glossary On
Versions: 1 2 3 4 5 6 7 8 9 10 11 12 13 14 15 16 17 18 19 20 21 22 23 24 25 26 27 28 29 30 31 32 33 34 35 36 37 38
000
FTAK31 PANC 230101 AAA
TAFADU
TAF AMD
PADU 230101Z 2301/2324 23013G19KT P6SM SCT045 BKN070
     FM230300 20014G22KT P6SM -RA BKN025 OVC045
     FM231200 19014G22KT 4SM -RA BR BKN015 OVC025=

USA.gov is the U.S. government's official web portal to all federal, state and local government web resources and services.